Time;durP1;ratioP1;P1;durP2;ratioP2;P2;SDS_P1;SDS_P2;PMS_P1;PMS_P2;Temp;Humidity;BMP_temperature;BMP_pressure;BME280_temperature;BME280_humidity;BME280_pressure;Samples;Min_cycle;Max_cycle;Signal;HPM_P1;HPM_P2
2022/12/06 00:01:15;;;;;;;12.63;8.55;;;;;;;;;;5043812;28;20054;-93
2022/12/06 00:03:42;;;;;;;11.45;8.60;;;;;;;;;;5041264;28;20581;-93
2022/12/06 00:06:15;;;;;;;14.38;10.20;;;;;;;;;;5041440;28;20505;-94
2022/12/06 00:08:43;;;;;;;14.13;9.57;;;;;;;;;;5041826;28;20128;-94
2022/12/06 00:11:12;;;;;;;13.50;9.30;;;;;;;;;;5041672;28;20054;-93
2022/12/06 00:13:40;;;;;;;13.15;8.73;;;;;;;;;;5041398;28;20056;-93
2022/12/06 00:16:11;;;;;;;19.48;9.27;;;;;;;;;;5043997;28;20050;-93
2022/12/06 00:18:39;;;;;;;16.42;10.80;;;;;;;;;;5047829;28;20111;-93
2022/12/06 00:21:11;;;;;;;18.15;10.05;;;;;;;;;;5048467;28;20056;-93
2022/12/06 00:23:39;;;;;;;17.38;9.65;;;;;;;;;;5043697;28;20107;-93
2022/12/06 00:26:07;;;;;;;15.93;9.00;;;;;;;;;;5043073;28;20076;-93
2022/12/06 00:28:35;;;;;;;15.20;8.90;;;;;;;;;;5042375;28;20060;-93
2022/12/06 00:31:03;;;;;;;11.45;8.45;;;;;;;;;;5040215;28;20516;-93
2022/12/06 00:33:31;;;;;;;11.93;8.82;;;;;;;;;;5039838;28;20482;-93
2022/12/06 00:36:07;;;;;;;20.90;11.88;;;;;;;;;;5037962;28;20137;-93
2022/12/06 00:38:35;;;;;;;15.27;9.65;;;;;;;;;;5038939;28;20049;-93
2022/12/06 00:41:04;;;;;;;14.25;10.10;;;;;;;;;;5038255;28;20498;-93
2022/12/06 00:43:32;;;;;;;19.67;11.27;;;;;;;;;;5037901;28;20046;-94
2022/12/06 00:45:59;;;;;;;18.15;9.25;;;;;;;;;;5036630;28;20398;-93
2022/12/06 00:48:27;;;;;;;13.75;9.10;;;;;;;;;;5037025;28;20052;-93
2022/12/06 00:50:54;;;;;;;13.38;8.73;;;;;;;;;;5039078;28;20406;-93
2022/12/06 00:53:22;;;;;;;13.90;9.70;;;;;;;;;;5039931;28;20050;-94
2022/12/06 00:55:49;;;;;;;12.65;8.40;;;;;;;;;;5043717;28;20049;-93
2022/12/06 00:58:17;;;;;;;11.85;8.88;;;;;;;;;;5043574;28;20081;-93
2022/12/06 01:00:44;;;;;;;8.95;6.63;;;;;;;;;;5042507;28;20049;-93
2022/12/06 01:03:11;;;;;;;8.63;6.55;;;;;;;;;;5041447;28;20046;-93
2022/12/06 01:05:42;;;;;;;9.02;6.55;;;;;;;;;;5042725;28;20132;-93
2022/12/06 01:08:10;;;;;;;9.15;7.20;;;;;;;;;;5041548;28;20450;-93
2022/12/06 01:10:38;;;;;;;10.13;7.13;;;;;;;;;;5043501;28;20084;-93
2022/12/06 01:13:06;;;;;;;11.43;7.47;;;;;;;;;;5043789;28;20056;-93
2022/12/06 01:15:35;;;;;;;12.80;6.38;;;;;;;;;;5044477;28;20056;-93
2022/12/06 01:18:03;;;;;;;7.97;5.90;;;;;;;;;;5044637;28;20068;-93
2022/12/06 01:20:30;;;;;;;11.15;6.15;;;;;;;;;;5044580;28;20061;-93
2022/12/06 01:22:58;;;;;;;10.63;6.80;;;;;;;;;;5045703;28;20122;-93
2022/12/06 01:25:25;;;;;;;9.63;7.00;;;;;;;;;;5046470;28;20049;-93
2022/12/06 01:27:55;;;;;;;9.60;6.47;;;;;;;;;;5046530;28;20053;-94
2022/12/06 01:30:22;;;;;;;8.07;6.40;;;;;;;;;;5044568;28;20482;-93
2022/12/06 01:32:50;;;;;;;8.90;6.97;;;;;;;;;;5048244;28;20088;-93
2022/12/06 01:35:17;;;;;;;9.25;7.30;;;;;;;;;;5051659;28;20108;-94
2022/12/06 01:37:45;;;;;;;6.35;5.75;;;;;;;;;;5043761;28;20049;-93
2022/12/06 01:40:13;;;;;;;7.75;6.28;;;;;;;;;;5043879;28;20132;-93
2022/12/06 01:42:40;;;;;;;8.68;7.35;;;;;;;;;;5043978;28;20049;-93
2022/12/06 01:45:09;;;;;;;12.57;8.02;;;;;;;;;;5047502;28;20140;-93
2022/12/06 01:47:40;;;;;;;9.82;6.68;;;;;;;;;;5045640;28;20119;-93
2022/12/06 01:50:14;;;;;;;9.63;7.10;;;;;;;;;;5045983;28;20049;-94
2022/12/06 01:52:41;;;;;;;9.68;6.68;;;;;;;;;;5045294;28;20049;-94
2022/12/06 01:55:09;;;;;;;9.05;6.50;;;;;;;;;;5046692;28;20053;-93
2022/12/06 01:57:37;;;;;;;10.65;6.75;;;;;;;;;;5046833;28;20053;-94
2022/12/06 02:00:04;;;;;;;10.85;7.72;;;;;;;;;;5044407;28;20050;-93
2022/12/06 02:02:32;;;;;;;9.95;6.63;;;;;;;;;;5046772;28;20544;-93
2022/12/06 02:05:00;;;;;;;8.75;6.55;;;;;;;;;;5046845;28;20053;-93
2022/12/06 02:07:29;;;;;;;7.18;6.22;;;;;;;;;;5047730;28;20132;-93
2022/12/06 02:09:56;;;;;;;6.15;5.47;;;;;;;;;;5047058;28;20155;-93
2022/12/06 02:12:24;;;;;;;7.65;6.15;;;;;;;;;;5043955;28;20060;-93
2022/12/06 02:14:53;;;;;;;13.25;6.70;;;;;;;;;;5044202;28;20472;-94
2022/12/06 02:17:35;;;;;;;9.70;6.57;;;;;;;;;;5043150;28;20053;-93
2022/12/06 02:20:24;;;;;;;12.55;7.55;;;;;;;;;;5041278;28;20140;-93
2022/12/06 02:23:10;;;;;;;11.00;6.75;;;;;;;;;;5040875;28;20085;-93
2022/12/06 02:26:04;;;;;;;9.25;5.38;;;;;;;;;;5040533;28;20050;-93
2022/12/06 02:28:31;;;;;;;10.57;7.15;;;;;;;;;;5036714;28;20046;-94
2022/12/06 02:31:04;;;;;;;9.07;6.30;;;;;;;;;;5037991;28;20056;-93
2022/12/06 02:33:39;;;;;;;10.05;6.45;;;;;;;;;;5039514;28;20111;-93
2022/12/06 02:36:11;;;;;;;8.60;6.80;;;;;;;;;;5037766;28;20065;-92
2022/12/06 02:38:42;;;;;;;8.93;6.88;;;;;;;;;;5039860;28;20088;-93
2022/12/06 02:41:12;;;;;;;15.18;8.80;;;;;;;;;;5036588;28;20045;-93
2022/12/06 02:43:45;;;;;;;17.02;8.55;;;;;;;;;;5035258;28;20072;-93
2022/12/06 02:46:13;;;;;;;18.20;8.93;;;;;;;;;;5035974;28;20053;-93
2022/12/06 02:48:42;;;;;;;16.27;8.57;;;;;;;;;;5035393;28;20491;-93
2022/12/06 02:51:13;;;;;;;10.13;6.82;;;;;;;;;;5035940;28;20046;-93
2022/12/06 02:53:43;;;;;;;13.95;8.40;;;;;;;;;;5036078;28;20498;-93
2022/12/06 02:56:11;;;;;;;9.68;7.20;;;;;;;;;;5036405;28;20057;-93
2022/12/06 02:58:38;;;;;;;11.48;7.25;;;;;;;;;;5035803;28;20450;-93
2022/12/06 03:01:25;;;;;;;12.18;6.72;;;;;;;;;;5035701;28;20060;-93
2022/12/06 03:04:05;;;;;;;9.52;6.32;;;;;;;;;;5035661;28;20128;-93
2022/12/06 03:06:57;;;;;;;7.07;5.47;;;;;;;;;;5036205;28;20056;-90
2022/12/06 03:09:33;;;;;;;6.82;5.32;;;;;;;;;;5036437;28;20406;-93
2022/12/06 03:12:08;;;;;;;7.45;5.82;;;;;;;;;;5039939;28;20133;-92
2022/12/06 03:14:42;;;;;;;5.57;4.85;;;;;;;;;;5036123;28;20085;-92
2022/12/06 03:17:20;;;;;;;6.60;4.60;;;;;;;;;;5034310;28;20136;-93
2022/12/06 03:19:50;;;;;;;4.78;4.38;;;;;;;;;;5036196;28;20056;-93
2022/12/06 03:22:31;;;;;;;4.97;4.47;;;;;;;;;;5035252;28;20060;-92
2022/12/06 03:25:06;;;;;;;5.30;4.43;;;;;;;;;;5034499;28;20049;-92
2022/12/06 03:27:34;;;;;;;6.15;5.03;;;;;;;;;;5035266;28;20136;-93
2022/12/06 03:30:03;;;;;;;7.20;5.00;;;;;;;;;;5034292;28;20589;-93
2022/12/06 03:32:32;;;;;;;5.55;5.05;;;;;;;;;;5034388;28;20140;-93
2022/12/06 03:35:02;;;;;;;8.10;5.03;;;;;;;;;;5033564;28;20057;-92
2022/12/06 03:37:31;;;;;;;5.97;5.00;;;;;;;;;;5033640;28;20064;-92
2022/12/06 03:40:05;;;;;;;6.82;5.05;;;;;;;;;;5034366;28;20050;-93
2022/12/06 03:42:33;;;;;;;6.90;5.07;;;;;;;;;;5034541;28;20053;-93
2022/12/06 03:45:00;;;;;;;7.07;5.70;;;;;;;;;;5033177;28;20065;-93
2022/12/06 03:47:32;;;;;;;6.82;5.57;;;;;;;;;;5033347;28;20516;-93
2022/12/06 03:50:05;;;;;;;9.02;6.32;;;;;;;;;;5033056;28;20056;-93
2022/12/06 03:52:33;;;;;;;8.15;5.78;;;;;;;;;;5038033;28;20045;-93
2022/12/06 03:55:00;;;;;;;7.18;6.10;;;;;;;;;;5043094;28;20136;-93
2022/12/06 03:57:27;;;;;;;7.55;6.30;;;;;;;;;;5033261;28;20057;-93
2022/12/06 03:59:55;;;;;;;12.30;7.05;;;;;;;;;;5033106;28;20127;-92
2022/12/06 04:02:22;;;;;;;7.43;6.10;;;;;;;;;;5033249;28;20441;-93
2022/12/06 04:04:49;;;;;;;7.97;6.72;;;;;;;;;;5033488;28;20052;-92
2022/12/06 04:07:20;;;;;;;7.03;6.32;;;;;;;;;;5033489;28;20057;-93
2022/12/06 04:10:01;;;;;;;8.88;6.40;;;;;;;;;;5039369;28;20045;-92
2022/12/06 04:15:16;;;;;;;11.07;7.50;;;;;;;;;;5034698;28;20050;-93
2022/12/06 04:23:02;;;;;;;7.07;5.65;;;;;;;;;;5034221;28;20048;-93
2022/12/06 04:23:18;;;;;;;7.97;6.10;;;;;;;;;;5033744;28;20058;-93
2022/12/06 04:25:46;;;;;;;7.50;6.13;;;;;;;;;;5031758;28;20128;-93
2022/12/06 04:39:21;;;;;;;9.30;6.38;;;;;;;;;;5038015;28;20045;-93
2022/12/06 04:44:36;;;;;;;9.93;7.65;;;;;;;;;;5038175;28;20140;-92
2022/12/06 04:47:04;;;;;;;10.88;7.53;;;;;;;;;;5037196;28;20045;-92
2022/12/06 04:49:31;;;;;;;9.98;7.07;;;;;;;;;;5036728;28;20049;-93
2022/12/06 04:51:59;;;;;;;12.50;7.35;;;;;;;;;;5037253;28;20399;-93
2022/12/06 04:54:28;;;;;;;10.20;7.25;;;;;;;;;;5037169;28;20073;-93
2022/12/06 04:56:56;;;;;;;7.20;6.40;;;;;;;;;;5037021;28;20140;-93
2022/12/06 04:59:24;;;;;;;11.35;8.38;;;;;;;;;;5037809;28;20057;-93
2022/12/06 05:01:52;;;;;;;13.38;9.23;;;;;;;;;;5036936;28;20059;-93
2022/12/06 05:04:19;;;;;;;7.43;6.63;;;;;;;;;;5038109;28;20052;-93
2022/12/06 05:06:47;;;;;;;9.10;7.18;;;;;;;;;;5037528;28;20413;-93
2022/12/06 05:09:14;;;;;;;8.23;6.53;;;;;;;;;;5036416;28;20499;-93
2022/12/06 05:11:41;;;;;;;8.35;6.97;;;;;;;;;;5036659;28;20136;-93
2022/12/06 05:14:09;;;;;;;13.52;7.18;;;;;;;;;;5036836;28;20069;-93
2022/12/06 05:16:36;;;;;;;9.27;7.03;;;;;;;;;;5037005;28;20050;-93
2022/12/06 05:19:04;;;;;;;7.45;6.68;;;;;;;;;;5036073;28;20054;-92
2022/12/06 05:21:31;;;;;;;7.28;5.82;;;;;;;;;;5036355;28;20409;-92
2022/12/06 05:23:59;;;;;;;15.55;12.55;;;;;;;;;;5035705;28;20049;-93
2022/12/06 05:26:27;;;;;;;13.82;10.30;;;;;;;;;;5036459;28;20052;-93
2022/12/06 05:28:55;;;;;;;13.57;10.13;;;;;;;;;;5036061;28;20050;-93
2022/12/06 05:31:23;;;;;;;9.05;6.70;;;;;;;;;;5036504;28;20407;-93
2022/12/06 05:33:50;;;;;;;7.60;6.85;;;;;;;;;;5036120;28;20515;-92
2022/12/06 05:36:19;;;;;;;11.25;8.23;;;;;;;;;;5035976;28;20055;-93
2022/12/06 05:38:47;;;;;;;7.38;6.35;;;;;;;;;;5036038;28;20524;-93
2022/12/06 05:41:18;;;;;;;9.38;6.85;;;;;;;;;;5035308;28;20076;-93
2022/12/06 05:43:46;;;;;;;8.98;7.28;;;;;;;;;;5035691;28;20064;-94
2022/12/06 05:46:13;;;;;;;7.97;7.05;;;;;;;;;;5035920;28;20420;-93
2022/12/06 05:48:41;;;;;;;11.63;6.60;;;;;;;;;;5035581;28;20165;-93
2022/12/06 05:51:08;;;;;;;7.97;7.10;;;;;;;;;;5036228;28;20473;-93
2022/12/06 05:53:35;;;;;;;10.15;7.60;;;;;;;;;;5035722;28;20045;-93
2022/12/06 05:56:04;;;;;;;9.60;6.88;;;;;;;;;;5036459;28;20148;-93
2022/12/06 05:58:31;;;;;;;9.45;6.53;;;;;;;;;;5035532;28;20117;-93
2022/12/06 06:00:59;;;;;;;8.38;6.18;;;;;;;;;;5036297;28;20053;-93
2022/12/06 06:03:26;;;;;;;8.27;6.90;;;;;;;;;;5036435;28;20049;-93
2022/12/06 06:05:56;;;;;;;9.82;6.90;;;;;;;;;;5036882;28;20104;-93
2022/12/06 06:08:23;;;;;;;8.43;7.07;;;;;;;;;;5035890;28;20053;-93
2022/12/06 06:10:51;;;;;;;8.80;7.72;;;;;;;;;;5038033;28;20132;-93
2022/12/06 06:13:18;;;;;;;14.38;7.82;;;;;;;;;;5049515;28;20089;-93
2022/12/06 06:15:47;;;;;;;11.48;7.38;;;;;;;;;;5039829;28;20056;-91
2022/12/06 06:18:15;;;;;;;11.30;7.47;;;;;;;;;;5035788;28;20064;-92
2022/12/06 06:20:47;;;;;;;13.02;6.75;;;;;;;;;;5037017;28;20049;-93
2022/12/06 06:23:15;;;;;;;9.45;7.22;;;;;;;;;;5035920;28;20136;-93
2022/12/06 06:25:42;;;;;;;8.98;7.15;;;;;;;;;;5035891;28;20056;-93
2022/12/06 06:28:10;;;;;;;11.10;8.10;;;;;;;;;;5035891;28;20421;-94
2022/12/06 06:30:38;;;;;;;8.60;6.15;;;;;;;;;;5035911;28;20128;-93
2022/12/06 06:33:05;;;;;;;7.32;6.18;;;;;;;;;;5034738;28;20553;-93
2022/12/06 06:35:32;;;;;;;12.70;6.68;;;;;;;;;;5034785;28;20045;-93
2022/12/06 06:38:00;;;;;;;7.43;6.15;;;;;;;;;;5034689;28;20152;-93
2022/12/06 06:40:28;;;;;;;10.15;6.68;;;;;;;;;;5034700;28;20512;-93
2022/12/06 06:42:56;;;;;;;10.85;5.93;;;;;;;;;;5034864;28;20494;-93
2022/12/06 06:45:24;;;;;;;7.13;5.95;;;;;;;;;;5034865;28;20121;-93
2022/12/06 06:47:55;;;;;;;6.68;6.00;;;;;;;;;;5035014;28;20049;-93
2022/12/06 06:50:22;;;;;;;7.38;6.57;;;;;;;;;;5034717;28;20041;-93
2022/12/06 06:52:50;;;;;;;8.05;7.00;;;;;;;;;;5035593;28;20084;-93
2022/12/06 06:55:19;;;;;;;9.50;7.57;;;;;;;;;;5035483;28;20112;-92
2022/12/06 06:57:46;;;;;;;9.93;6.80;;;;;;;;;;5035719;28;20060;-93
2022/12/06 07:00:14;;;;;;;12.90;8.30;;;;;;;;;;5034802;28;20104;-93
2022/12/06 07:02:41;;;;;;;19.85;12.20;;;;;;;;;;5034410;28;20057;-93
2022/12/06 07:05:09;;;;;;;23.15;15.07;;;;;;;;;;5034610;28;20053;-93
2022/12/06 07:07:36;;;;;;;14.55;10.80;;;;;;;;;;5034855;28;20121;-92
2022/12/06 07:10:04;;;;;;;11.75;10.23;;;;;;;;;;5034724;28;20049;-93
2022/12/06 07:12:31;;;;;;;10.98;8.80;;;;;;;;;;5034981;28;20049;-93
2022/12/06 07:14:58;;;;;;;12.52;8.98;;;;;;;;;;5034343;28;20063;-93
2022/12/06 07:17:26;;;;;;;10.30;8.23;;;;;;;;;;5034247;28;20045;-93
2022/12/06 07:19:54;;;;;;;12.02;9.00;;;;;;;;;;5033989;28;20053;-93
2022/12/06 07:22:22;;;;;;;9.88;8.35;;;;;;;;;;5034326;28;20053;-93
2022/12/06 07:24:49;;;;;;;9.73;7.05;;;;;;;;;;5034339;28;20063;-92
2022/12/06 07:27:18;;;;;;;11.63;8.18;;;;;;;;;;5033877;28;20057;-93
2022/12/06 07:29:46;;;;;;;9.13;7.30;;;;;;;;;;5033585;28;20053;-93
2022/12/06 07:32:13;;;;;;;14.02;12.52;;;;;;;;;;5033574;28;20124;-92
2022/12/06 07:34:40;;;;;;;10.85;8.82;;;;;;;;;;5034233;28;20144;-93
2022/12/06 07:37:07;;;;;;;9.07;7.22;;;;;;;;;;5033828;28;20501;-93
2022/12/06 07:39:35;;;;;;;7.90;7.10;;;;;;;;;;5033469;28;20065;-93
2022/12/06 07:45:00;;;;;;;12.15;8.27;;;;;;;;;;5034693;28;20041;-92
2022/12/06 07:47:39;;;;;;;8.40;7.15;;;;;;;;;;5032827;28;20057;-93
2022/12/06 07:50:08;;;;;;;10.35;7.45;;;;;;;;;;5033139;28;20516;-93
2022/12/06 07:52:42;;;;;;;16.38;10.40;;;;;;;;;;5033267;28;20068;-93
2022/12/06 07:55:11;;;;;;;9.88;8.73;;;;;;;;;;5032896;28;20072;-93
2022/12/06 07:57:38;;;;;;;13.82;8.88;;;;;;;;;;5033109;28;20106;-93
2022/12/06 08:00:11;;;;;;;15.75;10.77;;;;;;;;;;5032892;28;20144;-93
2022/12/06 08:02:38;;;;;;;14.23;9.40;;;;;;;;;;5032644;28;20049;-92
2022/12/06 08:05:05;;;;;;;13.60;9.50;;;;;;;;;;5032586;28;20049;-93
2022/12/06 08:07:33;;;;;;;15.00;9.50;;;;;;;;;;5032715;28;20148;-93
2022/12/06 08:10:00;;;;;;;18.27;10.95;;;;;;;;;;5032881;28;20410;-93
2022/12/06 08:12:32;;;;;;;19.40;12.27;;;;;;;;;;5032763;28;20045;-93
2022/12/06 08:14:59;;;;;;;15.38;11.45;;;;;;;;;;5032863;28;20063;-93
2022/12/06 08:17:27;;;;;;;16.35;10.70;;;;;;;;;;5032992;28;20049;-93
2022/12/06 08:19:54;;;;;;;15.25;9.60;;;;;;;;;;5032717;28;20059;-93
2022/12/06 08:22:22;;;;;;;10.82;8.77;;;;;;;;;;5032826;28;20049;-93
2022/12/06 08:24:49;;;;;;;14.50;9.95;;;;;;;;;;5033055;28;20493;-93
2022/12/06 08:27:17;;;;;;;18.05;11.70;;;;;;;;;;5034009;28;20401;-94
2022/12/06 08:29:44;;;;;;;15.02;11.45;;;;;;;;;;5033283;28;20060;-94
2022/12/06 08:32:11;;;;;;;13.35;10.88;;;;;;;;;;5037260;28;20071;-93
2022/12/06 08:34:39;;;;;;;13.07;10.10;;;;;;;;;;5043666;28;20053;-93
2022/12/06 08:37:06;;;;;;;18.60;12.82;;;;;;;;;;5033224;28;20045;-93
2022/12/06 08:39:34;;;;;;;33.25;21.40;;;;;;;;;;5033074;28;20049;-93
2022/12/06 08:42:02;;;;;;;22.17;14.63;;;;;;;;;;5033421;28;20053;-93
2022/12/06 08:44:31;;;;;;;24.92;13.52;;;;;;;;;;5032828;28;20061;-93
2022/12/06 08:46:59;;;;;;;15.52;11.20;;;;;;;;;;5032296;28;20107;-94
2022/12/06 08:49:27;;;;;;;18.80;11.70;;;;;;;;;;5033253;28;20148;-94
2022/12/06 08:51:55;;;;;;;19.15;13.73;;;;;;;;;;5033056;28;20386;-93
2022/12/06 08:54:23;;;;;;;18.75;13.75;;;;;;;;;;5042557;28;20049;-93
2022/12/06 08:56:50;;;;;;;21.02;13.23;;;;;;;;;;5032805;28;20046;-94
2022/12/06 08:59:18;;;;;;;19.58;12.90;;;;;;;;;;5032754;28;20051;-93
2022/12/06 09:01:46;;;;;;;18.60;14.05;;;;;;;;;;5032273;28;20055;-93
2022/12/06 09:04:14;;;;;;;35.45;21.17;;;;;;;;;;5032305;28;20083;-93
2022/12/06 09:06:43;;;;;;;24.52;17.13;;;;;;;;;;5032264;28;20502;-93
2022/12/06 09:09:11;;;;;;;25.00;17.48;;;;;;;;;;5032672;28;20049;-94
2022/12/06 09:11:39;;;;;;;37.45;22.55;;;;;;;;;;5032868;28;20061;-87
2022/12/06 09:14:10;;;;;;;38.47;22.38;;;;;;;;;;5033222;28;20137;-94
2022/12/06 09:16:43;;;;;;;43.30;24.38;;;;;;;;;;5036284;28;20053;-93
2022/12/06 09:19:11;;;;;;;36.33;24.30;;;;;;;;;;5036246;28;20053;-93
2022/12/06 09:21:41;;;;;;;35.42;21.25;;;;;;;;;;5036864;28;20466;-94
2022/12/06 09:24:11;;;;;;;25.98;17.10;;;;;;;;;;5036138;28;20057;-94
2022/12/06 09:26:38;;;;;;;30.83;18.80;;;;;;;;;;5036222;28;20129;-94
2022/12/06 09:29:06;;;;;;;39.05;19.60;;;;;;;;;;5036947;28;20509;-94
2022/12/06 09:31:38;;;;;;;36.13;20.02;;;;;;;;;;5035998;28;20038;-93
2022/12/06 09:34:07;;;;;;;34.47;21.27;;;;;;;;;;5035746;28;20064;-93
2022/12/06 09:36:36;;;;;;;42.03;21.95;;;;;;;;;;5035551;28;20054;-93
2022/12/06 09:39:05;;;;;;;45.40;30.73;;;;;;;;;;5035546;28;20053;-93
2022/12/06 09:41:38;;;;;;;163.30;85.18;;;;;;;;;;5035321;28;20111;-94
2022/12/06 09:44:06;;;;;;;;;;;;;;;;;;5035998;28;20108;-93
2022/12/06 09:46:52;;;;;;;53.13;33.33;;;;;;;;;;5035614;28;20281;-94
2022/12/06 09:49:27;;;;;;;68.55;41.72;;;;;;;;;;5035421;28;20103;-92
2022/12/06 09:52:13;;;;;;;57.55;40.00;;;;;;;;;;5035508;28;20498;-94
2022/12/06 09:54:41;;;;;;;55.20;36.58;;;;;;;;;;5035941;28;20132;-94
2022/12/06 09:57:20;;;;;;;48.00;34.60;;;;;;;;;;5035423;28;20064;-93
2022/12/06 09:59:53;;;;;;;37.70;27.45;;;;;;;;;;5035257;28;20049;-93
2022/12/06 10:02:39;;;;;;;38.08;27.77;;;;;;;;;;5035025;28;20049;-93
2022/12/06 10:05:13;;;;;;;29.38;22.80;;;;;;;;;;5035482;28;20413;-93
2022/12/06 10:07:46;;;;;;;38.00;26.25;;;;;;;;;;5035330;28;20045;-93
2022/12/06 10:10:17;;;;;;;18.55;12.93;;;;;;;;;;5034910;28;20053;-93
2022/12/06 10:12:57;;;;;;;11.10;9.45;;;;;;;;;;5034357;28;20051;-94
2022/12/06 10:15:31;;;;;;;15.73;12.57;;;;;;;;;;5035076;28;20067;-93
2022/12/06 10:17:58;;;;;;;;;;;;;;;;;;5035271;28;20509;-92
2022/12/06 10:20:32;;;;;;;14.93;10.20;;;;;;;;;;5035109;28;19956;-93
2022/12/06 10:23:09;;;;;;;11.25;9.35;;;;;;;;;;5034593;28;20053;-93
2022/12/06 10:25:36;;;;;;;12.80;10.25;;;;;;;;;;5032692;28;20049;-94
2022/12/06 10:28:03;;;;;;;13.73;10.50;;;;;;;;;;5034583;28;20049;-93
2022/12/06 10:30:33;;;;;;;13.15;10.20;;;;;;;;;;5034270;28;20132;-93
2022/12/06 10:33:11;;;;;;;11.93;10.55;;;;;;;;;;5034375;28;20064;-93
2022/12/06 10:35:58;;;;;;;13.35;10.35;;;;;;;;;;5034555;28;20053;-93
2022/12/06 10:38:29;;;;;;;16.27;11.32;;;;;;;;;;5035019;28;20383;-93
2022/12/06 10:40:57;;;;;;;12.32;9.68;;;;;;;;;;5034271;28;20056;-94
2022/12/06 10:43:43;;;;;;;11.10;9.95;;;;;;;;;;5034681;28;20056;-92
2022/12/06 10:49:06;;;;;;;11.82;10.25;;;;;;;;;;5035481;28;20049;-93
2022/12/06 10:51:37;;;;;;;10.77;9.68;;;;;;;;;;5034478;28;20414;-93
2022/12/06 10:54:28;;;;;;;12.13;9.35;;;;;;;;;;5040592;28;20140;-93
2022/12/06 10:56:56;;;;;;;11.93;10.00;;;;;;;;;;5019009;28;20141;-93
2022/12/06 10:59:31;;;;;;;64.05;35.15;;;;;;;;;;5035004;28;20080;-94
2022/12/06 11:02:01;;;;;;;54.20;32.30;;;;;;;;;;5036444;28;20041;-94
2022/12/06 11:04:31;;;;;;;38.15;24.90;;;;;;;;;;5036870;28;20132;-93
2022/12/06 11:07:07;;;;;;;26.08;17.75;;;;;;;;;;5033858;28;20140;-93
2022/12/06 11:09:38;;;;;;;15.23;11.95;;;;;;;;;;5034132;28;20405;-93
2022/12/06 11:12:24;;;;;;;19.17;12.23;;;;;;;;;;5033865;28;20072;-94
2022/12/06 11:15:14;;;;;;;17.58;11.43;;;;;;;;;;5034056;28;20448;-93
2022/12/06 11:17:43;;;;;;;22.05;11.93;;;;;;;;;;5034088;28;20053;-93
2022/12/06 11:20:20;;;;;;;19.25;11.45;;;;;;;;;;5034298;28;20152;-93
2022/12/06 11:23:07;;;;;;;15.95;10.18;;;;;;;;;;5033777;28;20069;-94
2022/12/06 11:25:45;;;;;;;14.65;10.38;;;;;;;;;;5024312;28;20096;-94
2022/12/06 11:28:20;;;;;;;14.02;10.02;;;;;;;;;;5034246;28;20076;-94
2022/12/06 11:30:50;;;;;;;12.90;9.70;;;;;;;;;;5033791;28;20049;-93
2022/12/06 11:33:21;;;;;;;25.05;11.77;;;;;;;;;;5033954;28;20506;-94
2022/12/06 11:35:49;;;;;;;70.60;31.52;;;;;;;;;;5033990;28;20053;-93
2022/12/06 11:38:16;;;;;;;24.25;12.57;;;;;;;;;;5032937;28;20136;-94
2022/12/06 11:40:45;;;;;;;18.70;11.65;;;;;;;;;;5034410;28;20148;-93
2022/12/06 11:43:16;;;;;;;23.08;11.40;;;;;;;;;;5035222;28;20041;-94
2022/12/06 11:45:44;;;;;;;17.50;10.00;;;;;;;;;;5036412;28;20067;-94
2022/12/06 11:48:17;;;;;;;11.13;9.73;;;;;;;;;;5037375;28;20152;-94
2022/12/06 11:50:45;;;;;;;11.87;10.67;;;;;;;;;;5035001;28;20554;-94
2022/12/06 11:53:17;;;;;;;17.00;14.40;;;;;;;;;;5034642;28;20469;-94
2022/12/06 11:55:46;;;;;;;15.60;12.25;;;;;;;;;;5035528;28;20148;-95
2022/12/06 11:58:18;;;;;;;13.98;11.93;;;;;;;;;;5035583;28;20128;-93
2022/12/06 12:01:09;;;;;;;19.73;13.30;;;;;;;;;;5035369;28;20095;-94
2022/12/06 12:03:37;;;;;;;40.45;19.10;;;;;;;;;;5035634;28;20495;-94
2022/12/06 12:06:25;;;;;;;27.90;16.40;;;;;;;;;;5036612;28;20045;-94
2022/12/06 12:09:04;;;;;;;49.92;21.13;;;;;;;;;;5036508;28;20128;-94
2022/12/06 12:11:33;;;;;;;153.32;48.17;;;;;;;;;;5036603;28;20497;-94
2022/12/06 12:14:02;;;;;;;17.55;11.60;;;;;;;;;;5037351;28;20561;-94
2022/12/06 12:16:34;;;;;;;41.60;16.02;;;;;;;;;;5038836;28;20140;-94
2022/12/06 12:19:07;;;;;;;15.07;10.73;;;;;;;;;;5042223;28;20050;-94
2022/12/06 12:21:39;;;;;;;15.15;9.93;;;;;;;;;;5043697;28;20084;-94
2022/12/06 12:24:27;;;;;;;11.88;9.10;;;;;;;;;;5043738;28;20083;-94
2022/12/06 12:26:55;;;;;;;26.08;16.63;;;;;;;;;;5039397;28;20086;-94
2022/12/06 12:29:24;;;;;;;31.75;20.17;;;;;;;;;;5041574;28;20049;-95
2022/12/06 12:31:57;;;;;;;19.23;12.65;;;;;;;;;;5039252;28;20065;-94
2022/12/06 12:34:30;;;;;;;14.98;11.73;;;;;;;;;;5043243;28;20478;-95
2022/12/06 12:36:59;;;;;;;16.65;11.63;;;;;;;;;;5044698;28;20054;-94
2022/12/06 12:39:39;;;;;;;13.90;11.25;;;;;;;;;;5046066;28;20057;-95
2022/12/06 12:42:32;;;;;;;14.30;10.93;;;;;;;;;;5027871;28;20095;-94
2022/12/06 12:45:00;;;;;;;14.70;10.63;;;;;;;;;;5043246;28;20079;-94
2022/12/06 12:47:31;;;;;;;14.10;10.30;;;;;;;;;;5043462;28;20077;-94
2022/12/06 12:50:03;;;;;;;13.10;11.23;;;;;;;;;;5045246;28;20057;-95
2022/12/06 12:52:36;;;;;;;11.93;10.13;;;;;;;;;;5050050;28;20109;-95
2022/12/06 12:55:24;;;;;;;13.73;11.13;;;;;;;;;;5049151;28;20074;-94
2022/12/06 12:57:54;;;;;;;14.70;10.82;;;;;;;;;;5048745;28;20061;-94
2022/12/06 13:00:28;;;;;;;17.70;12.55;;;;;;;;;;5050413;28;20045;-94
2022/12/06 13:03:12;;;;;;;16.42;11.40;;;;;;;;;;5048203;28;20049;-94
2022/12/06 13:06:17;;;;;;;23.38;15.77;;;;;;;;;;5052037;28;20080;-95
2022/12/06 13:08:45;;;;;;;32.95;16.77;;;;;;;;;;5049894;28;20054;-95
2022/12/06 13:11:15;;;;;;;35.10;20.23;;;;;;;;;;5049031;28;20063;-94
2022/12/06 13:13:45;;;;;;;21.58;15.95;;;;;;;;;;5050549;28;20113;-94
2022/12/06 13:16:15;;;;;;;26.33;15.23;;;;;;;;;;5054301;28;20049;-94
2022/12/06 13:18:47;;;;;;;18.40;13.30;;;;;;;;;;5048683;28;20045;-95
2022/12/06 13:21:24;;;;;;;23.90;13.93;;;;;;;;;;5046680;28;20125;-92
2022/12/06 13:24:09;;;;;;;16.15;11.65;;;;;;;;;;5048462;28;20084;-95
2022/12/06 13:26:44;;;;;;;17.70;11.43;;;;;;;;;;5048830;28;20115;-95
2022/12/06 13:29:32;;;;;;;21.38;12.75;;;;;;;;;;5045715;28;20064;-94
2022/12/06 13:32:03;;;;;;;15.65;11.18;;;;;;;;;;5047045;28;20068;-94
2022/12/06 13:34:46;;;;;;;15.52;11.30;;;;;;;;;;5049692;28;20053;-95
2022/12/06 13:37:34;;;;;;;13.15;9.77;;;;;;;;;;5045621;28;20050;-94
2022/12/06 13:40:27;;;;;;;13.80;9.68;;;;;;;;;;5044509;28;20053;-94
2022/12/06 13:42:55;;;;;;;13.10;9.10;;;;;;;;;;5043605;28;20050;-94
2022/12/06 13:45:45;;;;;;;12.23;8.25;;;;;;;;;;5044655;28;20095;-95
2022/12/06 13:48:30;;;;;;;11.07;8.05;;;;;;;;;;5044683;28;20056;-95
2022/12/06 13:51:02;;;;;;;13.02;8.38;;;;;;;;;;5044909;28;20505;-94
2022/12/06 13:53:33;;;;;;;11.10;8.13;;;;;;;;;;5041537;28;20049;-94
2022/12/06 13:56:26;;;;;;;10.35;7.05;;;;;;;;;;5040892;28;20064;-94
2022/12/06 13:58:55;;;;;;;10.15;6.57;;;;;;;;;;5040034;28;20092;-95
2022/12/06 14:01:32;;;;;;;12.75;10.68;;;;;;;;;;5038681;28;20476;-94
2022/12/06 14:04:27;;;;;;;10.80;7.80;;;;;;;;;;5038592;28;20064;-93
2022/12/06 14:07:06;;;;;;;8.02;7.22;;;;;;;;;;5038254;28;20308;-94
2022/12/06 14:09:39;;;;;;;11.52;8.13;;;;;;;;;;5041143;28;20032;-94
2022/12/06 14:12:16;;;;;;;9.73;7.50;;;;;;;;;;5044332;28;20046;-95
2022/12/06 14:14:55;;;;;;;10.50;7.45;;;;;;;;;;5025979;28;20052;-95
2022/12/06 14:17:24;;;;;;;8.68;7.43;;;;;;;;;;5043157;28;20049;-94
2022/12/06 14:20:21;;;;;;;12.77;8.50;;;;;;;;;;5043574;28;20121;-94
2022/12/06 14:22:49;;;;;;;6.95;6.25;;;;;;;;;;5043365;28;20061;-94
2022/12/06 14:25:17;;;;;;;7.63;6.68;;;;;;;;;;5042092;28;20049;-96
2022/12/06 14:27:47;;;;;;;5.50;5.00;;;;;;;;;;5043166;28;20136;-95
2022/12/06 14:30:14;;;;;;;4.13;3.72;;;;;;;;;;5041685;28;20113;-94
2022/12/06 14:32:51;;;;;;;4.30;3.85;;;;;;;;;;5041122;28;20084;-95
2022/12/06 14:35:24;;;;;;;6.78;6.05;;;;;;;;;;5043856;28;20083;-94
2022/12/06 14:38:02;;;;;;;7.32;5.82;;;;;;;;;;5044548;28;20055;-94
2022/12/06 14:43:26;;;;;;;12.98;8.88;;;;;;;;;;5042773;28;20561;-94
2022/12/06 14:46:04;;;;;;;20.55;13.23;;;;;;;;;;5044824;28;20280;-92
2022/12/06 14:51:20;;;;;;;11.02;8.27;;;;;;;;;;5045815;28;20053;-94
2022/12/06 14:53:50;;;;;;;9.75;7.32;;;;;;;;;;5044987;28;20488;-94
2022/12/06 14:56:36;;;;;;;8.32;6.00;;;;;;;;;;5023701;28;20056;-95
2022/12/06 14:59:09;;;;;;;6.07;4.65;;;;;;;;;;5034702;28;20568;-94
2022/12/06 15:01:48;;;;;;;3.90;3.60;;;;;;;;;;5038989;28;20049;-94
2022/12/06 15:04:27;;;;;;;6.20;3.67;;;;;;;;;;5017788;28;20100;-95
2022/12/06 15:06:56;;;;;;;5.70;3.08;;;;;;;;;;5034602;28;20049;-94
2022/12/06 15:09:24;;;;;;;2.80;2.60;;;;;;;;;;5034297;28;20161;-94
2022/12/06 15:14:48;;;;;;;4.15;3.85;;;;;;;;;;5018317;28;20042;-94
2022/12/06 15:17:18;;;;;;;3.00;2.80;;;;;;;;;;5034890;28;20050;-94
2022/12/06 15:19:47;;;;;;;3.28;2.95;;;;;;;;;;5019076;28;20105;-94
2022/12/06 15:22:16;;;;;;;4.90;4.20;;;;;;;;;;5036116;28;20046;-95
2022/12/06 15:24:55;;;;;;;7.47;4.63;;;;;;;;;;5035524;28;20058;-95
2022/12/06 15:27:25;;;;;;;6.65;4.70;;;;;;;;;;5018790;28;20053;-94
2022/12/06 15:29:53;;;;;;;3.92;3.63;;;;;;;;;;5035491;28;20053;-94